Time;durP1;ratioP1;P1;durP2;ratioP2;P2;SDS_P1;SDS_P2;PMS_P1;PMS_P2;Temp;Humidity;BMP_temperature;BMP_pressure;BME280_temperature;BME280_humidity;BME280_pressure;Samples;Min_cycle;Max_cycle;Signal;HPM_P1;HPM_P2
2022/06/18 00:07:57;;;;;;;4.32;2.38;;;;;;;19.48;61.28;100173.66;31429378;28;20045;-74
2022/06/18 00:23:01;;;;;;;7.93;3.17;;;;;;;19.43;61.98;100186.88;31449309;28;20388;-74
2022/06/18 00:38:06;;;;;;;5.43;2.47;;;;;;;19.12;64.22;100183.13;31429721;28;20057;-73
2022/06/18 00:53:13;;;;;;;3.83;2.50;;;;;;;19.02;64.95;100196.19;31446028;28;20057;-74
2022/06/18 01:08:19;;;;;;;5.68;2.63;;;;;;;19.02;65.69;100179.69;31453290;28;20382;-73
2022/06/18 01:23:53;;;;;;;5.68;2.88;;;;;;;19.16;64.46;100167.91;31446775;28;20067;-73
2022/06/18 01:38:56;;;;;;;3.07;2.10;;;;;;;19.36;63.96;100178.25;31429780;28;20068;-73
2022/06/18 01:54:13;;;;;;;3.22;2.80;;;;;;;19.37;65.34;100188.00;31455378;28;20396;-73
2022/06/18 02:09:40;;;;;;;3.38;2.38;;;;;;;19.46;65.86;100190.66;31478951;28;20444;-75
2022/06/18 02:24:42;;;;;;;7.22;3.00;;;;;;;19.34;65.37;100195.25;31431243;28;20071;-73
2022/06/18 02:39:52;;;;;;;6.10;2.70;;;;;;;19.31;66.97;100201.69;31423264;28;20052;-73
2022/06/18 02:55:16;;;;;;;7.18;2.90;;;;;;;19.26;68.25;100210.63;31435224;28;20049;-73
2022/06/18 03:25:39;;;;;;;9.30;3.90;;;;;;;19.73;67.43;100220.66;31422471;28;20068;-74
2022/06/18 03:40:43;;;;;;;6.63;3.25;;;;;;;20.14;66.55;100220.72;31412359;28;20051;-73
2022/06/18 03:55:45;;;;;;;4.10;2.60;;;;;;;20.35;65.17;100222.22;31449052;28;20055;-73
2022/06/18 04:10:48;;;;;;;3.72;2.20;;;;;;;20.33;65.53;100226.72;31431615;28;20053;-74
2022/06/18 04:25:49;;;;;;;5.22;1.90;;;;;;;20.88;64.61;100220.34;31450560;28;20061;-73
2022/06/18 04:40:52;;;;;;;4.25;2.45;;;;;;;20.98;65.18;100224.47;31436234;28;20048;-72
2022/06/18 04:55:58;;;;;;;10.90;3.05;;;;;;;21.02;66.05;100236.06;31433303;28;20076;-73
2022/06/18 05:11:00;;;;;;;3.83;2.83;;;;;;;21.17;66.23;100231.16;31433393;28;20060;-72
2022/06/18 05:26:02;;;;;;;6.15;2.80;;;;;;;21.55;64.63;100237.53;31424199;28;20048;-73
2022/06/18 05:41:04;;;;;;;5.70;2.90;;;;;;;22.92;60.08;100237.25;31447586;28;20056;-73
2022/06/18 05:56:08;;;;;;;8.37;3.87;;;;;;;23.45;57.64;100241.84;31438127;28;20480;-72
2022/06/18 06:26:33;;;;;;;6.72;2.90;;;;;;;24.69;54.72;100240.31;31428141;28;20481;-74
2022/06/18 06:41:35;;;;;;;4.40;2.40;;;;;;;25.15;51.62;100243.09;31405203;28;20048;-73
2022/06/18 07:11:57;;;;;;;4.05;2.22;;;;;;;26.55;45.66;100232.63;31444547;28;19920;-73
2022/06/18 07:26:59;;;;;;;6.25;2.35;;;;;;;27.62;42.90;100213.81;31438428;28;20045;-73
2022/06/18 07:42:03;;;;;;;3.03;1.88;;;;;;;27.50;41.95;100241.09;31423018;28;20052;-72
2022/06/18 07:57:05;;;;;;;9.73;4.85;;;;;;;27.98;41.53;100233.69;31418082;28;20047;-72
2022/06/18 08:12:08;;;;;;;4.03;1.83;;;;;;;28.43;40.78;100221.63;31404194;28;20060;-73
2022/06/18 08:27:10;;;;;;;3.00;1.90;;;;;;;29.63;38.41;100225.47;31418021;28;20059;-73
2022/06/18 08:42:45;;;;;;;6.57;2.40;;;;;;;27.80;40.65;100206.63;31402490;28;20052;-74
2022/06/18 08:58:00;;;;;;;6.35;2.88;;;;;;;27.20;41.62;100209.91;31430176;28;20045;-70
2022/06/18 09:13:08;;;;;;;4.05;1.90;;;;;;;27.66;41.28;100196.75;31431416;28;20055;-71
2022/06/18 09:28:22;;;;;;;4.00;1.80;;;;;;;29.85;37.14;100202.50;31443470;28;20047;-68
2022/06/18 09:43:45;;;;;;;3.40;1.90;;;;;;;29.16;37.81;100213.16;31451293;28;20060;-69
2022/06/18 09:58:50;;;;;;;2.00;1.50;;;;;;;28.36;38.19;100208.34;31455046;28;20132;-71
2022/06/18 10:14:00;;;;;;;2.70;1.60;;;;;;;28.49;37.53;100208.31;31420638;28;20119;-71
2022/06/18 10:29:17;;;;;;;6.05;2.38;;;;;;;29.26;37.44;100193.84;31453170;28;20079;-75
2022/06/18 10:44:40;;;;;;;7.75;1.65;;;;;;;29.25;36.50;100183.97;31466477;28;20066;-72
2022/06/18 10:59:42;;;;;;;3.05;1.65;;;;;;;28.61;37.28;100187.22;31447291;28;20041;-71
2022/06/18 11:14:45;;;;;;;7.75;2.08;;;;;;;27.42;41.97;100195.63;31438692;28;20048;-71
2022/06/18 11:29:54;;;;;;;6.22;2.70;;;;;;;27.42;42.60;100183.72;31423509;28;20053;-72
2022/06/18 11:44:55;;;;;;;4.90;2.45;;;;;;;27.51;42.79;100181.28;31427449;28;20076;-70
2022/06/18 12:00:11;;;;;;;2.92;2.22;;;;;;;27.90;40.15;100157.50;31432412;28;20055;-69
2022/06/18 12:15:38;;;;;;;4.35;2.55;;;;;;;27.38;41.42;100161.00;31415913;28;20049;-72
2022/06/18 12:30:58;;;;;;;7.28;2.42;;;;;;;26.32;46.26;100182.81;31445813;28;20106;-71
2022/06/18 12:46:04;;;;;;;3.60;2.22;;;;;;;26.31;45.93;100186.13;31451348;28;20041;-71
2022/06/18 13:01:34;;;;;;;5.68;2.70;;;;;;;25.81;46.95;100173.53;31448391;28;20048;-71
2022/06/18 13:17:01;;;;;;;8.90;2.60;;;;;;;25.77;45.00;100173.06;31469901;28;20439;-70
2022/06/18 13:32:28;;;;;;;5.40;2.58;;;;;;;25.40;47.96;100174.44;31416754;28;20095;-71
2022/06/18 13:47:53;;;;;;;5.47;4.25;;;;;;;24.85;51.31;100202.59;31459289;28;20062;-70
2022/06/18 14:03:09;;;;;;;3.10;2.15;;;;;;;24.90;50.17;100182.38;31439284;28;20060;-72
2022/06/18 14:18:19;;;;;;;6.45;2.55;;;;;;;24.81;49.77;100167.53;31441268;28;20464;-71
2022/06/18 14:33:32;;;;;;;3.90;2.50;;;;;;;24.00;55.60;100188.38;31435945;28;20053;-72
2022/06/18 14:49:06;;;;;;;3.83;2.40;;;;;;;22.71;63.10;100204.22;31452686;28;20712;-71
2022/06/18 15:04:17;;;;;;;5.95;2.70;;;;;;;21.06;74.82;100234.56;31456787;28;20070;-71
2022/06/18 15:19:40;;;;;;;10.80;4.90;;;;;;;20.65;90.61;100246.94;31451274;28;20556;-70
2022/06/18 15:34:45;;;;;;;13.43;4.70;;;;;;;19.90;100.00;100278.72;31409294;28;20052;-72
2022/06/18 15:49:48;;;;;;;5.43;3.65;;;;;;;19.58;100.00;100279.75;31430564;28;20053;-73
2022/06/18 16:04:50;;;;;;;5.60;3.00;;;;;;;18.73;100.00;100274.66;31407645;28;20045;-70
2022/06/18 16:19:56;;;;;;;16.08;7.40;;;;;;;19.02;100.00;100278.72;31427772;28;20091;-70
2022/06/18 16:35:02;;;;;;;6.15;4.38;;;;;;;19.59;100.00;100292.28;31438525;28;20557;-71
2022/06/18 16:50:12;;;;;;;8.07;4.97;;;;;;;19.78;100.00;100285.31;31438705;28;20040;-69
2022/06/18 17:05:15;;;;;;;6.65;4.32;;;;;;;19.64;100.00;100291.59;31423921;28;20053;-71
2022/06/18 17:20:23;;;;;;;5.73;4.27;;;;;;;19.48;100.00;100292.03;31448227;28;20655;-70
2022/06/18 17:35:25;;;;;;;3.65;3.28;;;;;;;19.33;100.00;100287.31;31411056;28;20063;-70
2022/06/18 17:50:28;;;;;;;5.23;3.57;;;;;;;19.17;100.00;100298.75;31470181;28;20052;-71
2022/06/18 18:05:29;;;;;;;4.43;3.20;;;;;;;19.34;100.00;100313.59;31429529;28;20052;-71
2022/06/18 18:20:34;;;;;;;5.47;4.18;;;;;;;19.32;100.00;100324.31;31460175;28;20055;-72
2022/06/18 18:35:37;;;;;;;8.18;3.55;;;;;;;19.20;100.00;100338.34;31443244;28;20067;-74
2022/06/18 18:50:40;;;;;;;7.53;4.00;;;;;;;18.93;100.00;100325.56;31457679;28;20051;-73
2022/06/18 19:05:42;;;;;;;7.30;4.53;;;;;;;18.76;100.00;100327.22;31459774;28;20416;-71
2022/06/18 19:20:45;;;;;;;8.48;3.63;;;;;;;18.58;100.00;100339.81;31439002;28;20047;-71
2022/06/18 19:35:47;;;;;;;6.90;3.57;;;;;;;18.62;100.00;100342.44;31428847;28;20477;-72
2022/06/18 19:50:50;;;;;;;5.90;4.28;;;;;;;18.66;100.00;100343.75;31438200;28;20393;-71
2022/06/18 20:05:51;;;;;;;5.03;3.53;;;;;;;18.74;100.00;100352.44;31416567;28;20056;-72
2022/06/18 20:20:54;;;;;;;5.20;3.03;;;;;;;18.66;100.00;100341.00;31407396;28;20053;-72
2022/06/18 20:35:57;;;;;;;3.88;2.78;;;;;;;18.64;100.00;100343.50;31424072;28;20099;-71
2022/06/18 20:50:59;;;;;;;3.90;2.97;;;;;;;18.79;100.00;100337.28;31425939;28;20550;-71
2022/06/18 21:06:01;;;;;;;7.40;5.10;;;;;;;18.70;100.00;100322.34;31424427;28;20059;-74
2022/06/18 21:21:03;;;;;;;4.00;2.85;;;;;;;18.60;100.00;100320.91;31425917;28;20044;-71
2022/06/18 21:36:59;;;;;;;5.40;3.20;;;;;;;18.37;100.00;100324.38;31469838;28;20052;-71
2022/06/18 21:51:27;;;;;;;3.70;2.67;;;;;;;18.36;100.00;100328.34;31440949;28;20063;-70
2022/06/18 22:06:29;;;;;;;2.47;2.28;;;;;;;18.25;100.00;100344.56;31471635;28;20511;-70
2022/06/18 22:21:31;;;;;;;5.13;2.70;;;;;;;18.11;100.00;100345.25;31454339;28;20492;-71
2022/06/18 22:36:33;;;;;;;2.60;2.25;;;;;;;17.88;100.00;100355.69;31451222;28;20053;-71
2022/06/18 22:51:37;;;;;;;4.70;2.67;;;;;;;17.69;100.00;100355.00;31429975;28;20049;-70
2022/06/18 23:06:43;;;;;;;4.20;2.67;;;;;;;17.64;100.00;100368.53;31436690;28;20119;-70
2022/06/18 23:21:47;;;;;;;3.55;2.95;;;;;;;17.56;100.00;100367.31;31442799;28;20408;-71
2022/06/18 23:36:51;;;;;;;4.78;3.70;;;;;;;17.36;100.00;100376.78;31414651;28;20056;-70
2022/06/18 23:51:58;;;;;;;7.77;3.73;;;;;;;17.24;100.00;100379.72;31433266;28;20041;-71
